Dwyer, Mississippi
Current Conditions -  °F | °C
As of 8:15 AM on Tuesday 27 Jan 2015 (Local Time) from KRNV Reporting Station
Clear Clear  
Wind Chill: 43°   Ceiling: Unl
Heat Index: 46°   Visibility: 10mi
Dew Point: 40°   Wind: 7mph
Humidity: 78%   Direction: 340°NNW
Pressure: 30.1"   Gusts: NA
Location:  33.5869°N, 90.6257°W
Report Text: KRNV 271415Z AUTO 34006KT 10SM CLR 08/04 A3010 RMK AO2 T00800043
Loading
Personal Weather Stations






























Interactive Weather Map New forecast layout! Learn more

10-Day Weather Forecast

Advertisements
Track Severe Weather on mobile